Aviation Digital Data Service (ADDS)

Output produced by METARs form (0436 UTC 29 July 2014)
found at http://aviationweather.gov/adds/metars/
 
KGON 290232Z 2903/2924 26008KT P6SM FEW040 SCT070 
     FM290800 30007KT P6SM SCT070 
     FM291600 26008KT P6SM SCT070 
     FM291800 23008KT P6SM SCT070